createdAt,value
2022-09-03T00:01:15.670Z,18.4
2022-09-03T00:05:10.984Z,18.5
2022-09-03T00:07:08.605Z,18.4
2022-09-03T00:09:14.179Z,18.3
2022-09-03T00:11:11.829Z,18.4
2022-09-03T00:13:09.488Z,18.4
2022-09-03T00:15:07.177Z,18.3
2022-09-03T00:17:04.748Z,18.2
2022-09-03T00:19:02.378Z,18.2
2022-09-03T00:21:00.058Z,18.1
2022-09-03T00:23:05.673Z,18.1
2022-09-03T00:27:01.111Z,18.1
2022-09-03T00:28:58.813Z,18
2022-09-03T00:30:56.290Z,18
2022-09-03T00:32:53.893Z,17.9
2022-09-03T00:34:51.548Z,17.8
2022-09-03T00:36:57.160Z,17.7
2022-09-03T00:38:54.812Z,17.7
2022-09-03T00:43:52.931Z,17.6
2022-09-03T00:45:50.563Z,17.5
2022-09-03T00:47:48.245Z,17.6
2022-09-03T00:49:53.842Z,17.6
2022-09-03T00:51:51.537Z,17.5
2022-09-03T00:53:49.165Z,17.5
2022-09-03T00:55:46.824Z,17.4
2022-09-03T00:57:45.780Z,17.4
2022-09-03T00:59:42.113Z,17.4
2022-09-03T01:01:39.834Z,17.5
2022-09-03T01:03:45.367Z,17.4
2022-09-03T01:05:43.016Z,17.4
2022-09-03T01:07:40.697Z,17.2
2022-09-03T01:09:38.340Z,17.2
2022-09-03T01:11:35.999Z,17.2
2022-09-03T01:13:33.667Z,17.3
2022-09-03T01:15:31.371Z,17.2
2022-09-03T01:17:36.941Z,16.9
2022-09-03T01:19:34.598Z,16.9
2022-09-03T01:21:32.244Z,17.1
2022-09-03T01:23:29.896Z,17
2022-09-03T01:29:22.896Z,17
2022-09-03T01:31:28.547Z,16.9
2022-09-03T01:33:26.146Z,16.7
2022-09-03T01:35:23.807Z,16.8
2022-09-03T01:36:26.658Z,16.8
2022-09-03T01:38:24.501Z,16.7
2022-09-03T01:40:21.954Z,16.6
2022-09-03T01:42:20.767Z,16.7
2022-09-03T01:44:25.231Z,16.6
2022-09-03T01:46:22.944Z,16.5
2022-09-03T01:48:20.551Z,16.6
2022-09-03T01:50:18.259Z,16.5
2022-09-03T01:54:18.029Z,16.5
2022-09-03T01:56:11.190Z,16.4
2022-09-03T02:02:12.181Z,16.3
2022-09-03T02:04:09.846Z,16.3
2022-09-03T02:06:07.516Z,16.3
2022-09-03T02:12:08.455Z,16.3
2022-09-03T02:18:01.501Z,16.2
2022-09-03T02:19:59.163Z,16.1
2022-09-03T02:21:56.862Z,16.1
2022-09-03T02:23:54.496Z,16.1
2022-09-03T02:26:00.125Z,16.1
2022-09-03T02:27:57.789Z,16.1
2022-09-03T02:29:55.442Z,16.1
2022-09-03T02:34:20.145Z,16
2022-09-03T02:36:17.810Z,16
2022-09-03T02:38:23.682Z,15.9
2022-09-03T02:40:21.083Z,16
2022-09-03T02:42:18.779Z,15.9
2022-09-03T02:44:16.424Z,15.9
2022-09-03T02:46:14.217Z,15.8
2022-09-03T02:48:11.806Z,15.8
2022-09-03T02:50:09.493Z,15.8
2022-09-03T02:54:12.762Z,15.8
2022-09-03T02:58:08.095Z,15.8
2022-09-03T03:00:05.766Z,15.7
2022-09-03T03:08:04.367Z,15.5
2022-09-03T03:10:02.048Z,15.5
2022-09-03T03:11:59.750Z,15.5
2022-09-03T03:13:57.402Z,15.4
2022-09-03T03:15:55.067Z,15.5
2022-09-03T03:17:52.797Z,15.5
2022-09-03T03:19:58.375Z,15.5
2022-09-03T03:24:56.543Z,15.4
2022-09-03T03:26:54.209Z,15.5
2022-09-03T03:28:51.918Z,15.5
2022-09-03T03:30:49.614Z,15.4
2022-09-03T03:32:55.203Z,15.4
2022-09-03T03:34:52.861Z,15.5
2022-09-03T03:36:50.532Z,15.4
2022-09-03T03:38:48.191Z,15.3
2022-09-03T03:40:45.883Z,15.4
2022-09-03T03:42:43.575Z,15.3
2022-09-03T03:46:46.876Z,15.1
2022-09-03T03:48:44.521Z,15.2
2022-09-03T03:52:39.887Z,15.1
2022-09-03T03:54:37.580Z,15.2
2022-09-03T04:04:33.976Z,15.2
2022-09-03T04:16:28.006Z,14.9
2022-09-03T04:18:25.584Z,14.9
2022-09-03T04:19:28.390Z,14.8
2022-09-03T04:21:26.636Z,14.9
2022-09-03T04:23:23.775Z,14.7
2022-09-03T04:25:21.440Z,14.7
2022-09-03T04:27:27.073Z,14.7
2022-09-03T04:29:24.748Z,14.9
2022-09-03T04:31:22.389Z,14.6
2022-09-03T04:33:20.090Z,14.7
2022-09-03T04:37:15.442Z,14.6
2022-09-03T04:39:13.135Z,14.8
2022-09-03T04:41:18.733Z,14.7
2022-09-03T04:45:14.113Z,14.6
2022-09-03T04:49:09.494Z,14.7
2022-09-03T04:51:07.154Z,14.6
2022-09-03T04:53:07.807Z,14.5
2022-09-03T04:55:10.470Z,14.6
2022-09-03T04:57:08.146Z,14.6
2022-09-03T04:59:05.921Z,14.5
2022-09-03T05:01:03.574Z,14.7
2022-09-03T05:03:01.167Z,14.6
2022-09-03T05:04:58.870Z,14.7
2022-09-03T05:09:02.143Z,14.8
2022-09-03T05:10:59.803Z,14.8
2022-09-03T05:12:57.504Z,14.7
2022-09-03T05:14:00.310Z,14.8
2022-09-03T05:15:58.058Z,14.6
2022-09-03T05:17:55.641Z,14.6
2022-09-03T05:19:53.345Z,14.6
2022-09-03T05:21:58.957Z,14.6
2022-09-03T05:23:56.653Z,14.6
2022-09-03T05:25:54.316Z,14.7
2022-09-03T05:29:49.713Z,14.8
2022-09-03T05:31:49.022Z,14.9
2022-09-03T05:33:46.572Z,14.8
2022-09-03T05:37:49.814Z,15
2022-09-03T05:39:47.542Z,14.9
2022-09-03T05:41:45.201Z,14.9
2022-09-03T05:43:42.887Z,15
2022-09-03T05:45:40.608Z,15
2022-09-03T05:47:38.294Z,15.1
2022-09-03T05:49:43.821Z,15.1
2022-09-03T05:51:41.484Z,15.3
2022-09-03T05:53:39.159Z,15.3
2022-09-03T05:55:36.837Z,15.3
2022-09-03T05:57:34.503Z,15.3
2022-09-03T05:59:32.169Z,15.3
2022-09-03T06:01:29.866Z,15.4
2022-09-03T06:03:35.584Z,15.3
2022-09-03T06:05:33.155Z,15.4
2022-09-03T06:07:30.829Z,15.5
2022-09-03T06:09:57.854Z,15.5
2022-09-03T06:11:57.296Z,15.5
2022-09-03T06:13:53.218Z,15.6
2022-09-03T06:15:58.848Z,15.7
2022-09-03T06:17:56.486Z,15.7
2022-09-03T06:21:51.832Z,15.9
2022-09-03T06:23:49.531Z,15.8
2022-09-03T06:27:44.885Z,16
2022-09-03T06:29:50.489Z,16
2022-09-03T06:31:48.187Z,16.2
2022-09-03T06:33:45.853Z,16.2
2022-09-03T06:35:43.557Z,16.3
2022-09-03T06:37:41.225Z,16.3
2022-09-03T06:39:38.962Z,16.4
2022-09-03T06:41:36.557Z,16.4
2022-09-03T06:43:42.197Z,16.4
2022-09-03T06:45:39.901Z,16.5
2022-09-03T06:47:37.509Z,16.6
2022-09-03T06:49:35.218Z,16.6
2022-09-03T06:51:32.897Z,16.6
2022-09-03T06:53:32.220Z,16.7
2022-09-03T06:55:28.203Z,16.7
2022-09-03T06:59:31.519Z,17
2022-09-03T07:01:29.378Z,17
2022-09-03T07:02:31.982Z,17
2022-09-03T07:04:29.648Z,17.1
2022-09-03T07:06:27.321Z,17.1
2022-09-03T07:08:25.080Z,17.2
2022-09-03T07:10:30.608Z,17.2
2022-09-03T07:14:25.892Z,17.3
2022-09-03T07:16:23.631Z,17.3
2022-09-03T07:18:21.244Z,17.4
2022-09-03T07:26:19.779Z,17.6
2022-09-03T07:28:17.450Z,17.7
2022-09-03T07:30:15.112Z,17.6
2022-09-03T07:32:12.839Z,17.8
2022-09-03T07:34:10.542Z,17.8
2022-09-03T07:36:08.131Z,17.7
2022-09-03T07:40:11.361Z,18
2022-09-03T07:42:09.023Z,18
2022-09-03T07:44:06.700Z,18.1
2022-09-03T07:46:04.329Z,18.3
2022-09-03T07:48:01.994Z,18.5
2022-09-03T07:49:59.625Z,18.5
2022-09-03T07:52:05.221Z,18.6
2022-09-03T07:54:02.859Z,18.6
2022-09-03T07:56:00.859Z,18.8
2022-09-03T07:57:03.339Z,18.9
2022-09-03T08:02:56.279Z,19.2
2022-09-03T08:05:01.835Z,19.2
2022-09-03T08:06:59.495Z,19.2
2022-09-03T08:09:00.751Z,19.5
2022-09-03T08:10:54.786Z,19.5
2022-09-03T08:12:52.417Z,19.5
2022-09-03T08:16:48.268Z,19.7
2022-09-03T08:18:53.232Z,19.8
2022-09-03T08:20:50.881Z,19.9
2022-09-03T08:22:48.535Z,20.1
2022-09-03T08:26:47.904Z,20
2022-09-03T08:30:39.049Z,20.2
2022-09-03T08:34:42.236Z,20.2
2022-09-03T08:36:39.885Z,20.5
2022-09-03T08:40:35.135Z,20.6
2022-09-03T08:44:30.365Z,20.7
2022-09-03T08:51:33.915Z,21.2
2022-09-03T08:53:31.545Z,21.1
2022-09-03T08:55:29.177Z,21.2
2022-09-03T08:57:26.801Z,21.2
2022-09-03T08:59:32.873Z,21.3
2022-09-03T09:01:29.976Z,21.4
2022-09-03T09:05:25.158Z,21.7
2022-09-03T09:07:22.747Z,21.6
2022-09-03T09:09:20.345Z,21.7
2022-09-03T09:11:17.928Z,21.8
2022-09-03T09:13:23.489Z,22
2022-09-03T09:15:21.113Z,22
2022-09-03T09:19:16.292Z,22.1
2022-09-03T09:21:17.761Z,22.3
2022-09-03T09:23:11.483Z,22.2
2022-09-03T09:29:12.184Z,22.4
2022-09-03T09:31:09.813Z,22.7
2022-09-03T09:33:07.363Z,22.5
2022-09-03T09:35:04.933Z,22.8
2022-09-03T09:37:02.526Z,22.7
2022-09-03T09:39:00.089Z,22.9
2022-09-03T09:41:01.230Z,22.9
2022-09-03T09:42:58.820Z,22.9
2022-09-03T09:44:56.394Z,23.1
2022-09-03T09:47:23.331Z,23
2022-09-03T09:49:20.890Z,22.9
2022-09-03T09:51:18.441Z,23
2022-09-03T09:53:23.970Z,23.1
2022-09-03T09:55:21.545Z,23.2
2022-09-03T09:59:16.700Z,23.3
2022-09-03T10:01:14.341Z,23.4
2022-09-03T10:03:11.833Z,23.5
2022-09-03T10:05:09.466Z,23.6
2022-09-03T10:07:14.874Z,23.5
2022-09-03T10:09:12.462Z,23.7
2022-09-03T10:11:09.956Z,23.7
2022-09-03T10:13:07.513Z,23.9
2022-09-03T10:15:05.076Z,23.8
2022-09-03T10:17:02.617Z,23.9
2022-09-03T10:19:00.155Z,23.9
2022-09-03T10:23:03.233Z,24.3
2022-09-03T10:25:00.775Z,24.4
2022-09-03T10:26:58.291Z,24.3
2022-09-03T10:28:55.930Z,24.3
2022-09-03T10:30:53.442Z,24.6
2022-09-03T10:32:50.913Z,24.5
2022-09-03T10:34:56.437Z,24.7
2022-09-03T10:36:53.987Z,24.8
2022-09-03T10:39:54.303Z,25.2
2022-09-03T10:41:51.762Z,25.2
2022-09-03T10:43:49.297Z,25.4
2022-09-03T10:47:52.327Z,25.5
2022-09-03T10:49:49.861Z,25.6
2022-09-03T10:51:49.473Z,25.6
2022-09-03T10:53:44.910Z,25.6
2022-09-03T10:55:42.420Z,25.7
2022-09-03T10:57:39.907Z,25.8
2022-09-03T10:59:37.424Z,25.9
2022-09-03T11:01:43.040Z,25.9
2022-09-03T11:03:40.429Z,25.9
2022-09-03T11:05:37.928Z,26.1
2022-09-03T11:07:35.423Z,26.4
2022-09-03T11:09:32.921Z,26.6
2022-09-03T11:11:30.402Z,26.9
2022-09-03T11:13:29.457Z,27
2022-09-03T11:15:34.937Z,27.2
2022-09-03T11:17:32.353Z,27.3
2022-09-03T11:19:29.788Z,27.5
2022-09-03T11:21:27.235Z,27.6
2022-09-03T11:23:24.659Z,27.7
2022-09-03T11:27:19.493Z,27.7
2022-09-03T11:29:24.921Z,28.1
2022-09-03T11:33:19.673Z,28
2022-09-03T11:34:31.633Z,28.3
2022-09-03T11:36:19.715Z,28.1
2022-09-03T11:38:17.100Z,28
2022-09-03T11:40:14.467Z,28.1
2022-09-03T11:42:19.808Z,28
2022-09-03T11:44:17.147Z,28.2
2022-09-03T11:46:14.539Z,28.1
2022-09-03T11:48:11.767Z,28.3
2022-09-03T11:54:03.660Z,28.7
2022-09-03T11:58:06.256Z,29.2
2022-09-03T12:02:00.818Z,29.5
2022-09-03T12:03:57.975Z,29.7
2022-09-03T12:05:55.226Z,29.9
2022-09-03T12:07:52.447Z,29.9
2022-09-03T12:09:57.719Z,30
2022-09-03T12:11:54.955Z,29.8
2022-09-03T12:13:52.118Z,29.9
2022-09-03T12:15:49.474Z,29.6
2022-09-03T12:17:46.507Z,29.9
2022-09-03T12:19:43.684Z,29.9
2022-09-03T12:21:40.841Z,30.1
2022-09-03T12:23:46.091Z,30
2022-09-03T12:25:43.225Z,30.1
2022-09-03T12:27:40.349Z,30.5
2022-09-03T12:28:44.069Z,31
2022-09-03T12:30:40.144Z,31.1
2022-09-03T12:32:37.363Z,31.2
2022-09-03T12:36:39.487Z,30.6
2022-09-03T12:42:30.729Z,30.9
2022-09-03T12:44:27.803Z,30.7
2022-09-03T12:46:33.758Z,31.1
2022-09-03T12:48:22.427Z,31.9
2022-09-03T12:50:27.166Z,31.9
2022-09-03T12:54:21.095Z,31.5
2022-09-03T12:58:15.130Z,31.4
2022-09-03T13:00:12.163Z,31.8
2022-09-03T13:02:09.236Z,31.5
2022-09-03T13:04:14.203Z,31.2
2022-09-03T13:06:11.203Z,31.3
2022-09-03T13:08:08.178Z,31.8
2022-09-03T13:10:05.165Z,31.8
2022-09-03T13:12:02.105Z,31.9
2022-09-03T13:13:59.086Z,31.4
2022-09-03T13:15:56.023Z,31.7
2022-09-03T13:18:01.113Z,31.6
2022-09-03T13:19:58.098Z,31.5
2022-09-03T13:21:55.012Z,31.8
2022-09-03T13:24:21.500Z,32.4
2022-09-03T13:26:18.464Z,32.4
2022-09-03T13:30:20.451Z,33.4
2022-09-03T13:36:11.226Z,33.4
2022-09-03T13:38:08.169Z,33.6
2022-09-03T13:40:05.107Z,33.8
2022-09-03T13:42:01.960Z,34.1
2022-09-03T13:44:06.991Z,34.7
2022-09-03T13:46:03.947Z,35
2022-09-03T13:48:00.816Z,35.6
2022-09-03T13:51:54.581Z,35.7
2022-09-03T13:53:51.438Z,36.3
2022-09-03T13:55:48.376Z,35.9
2022-09-03T13:57:53.298Z,36.4
2022-09-03T13:59:50.131Z,36.2
2022-09-03T14:01:47.070Z,36.4
2022-09-03T14:03:48.557Z,36.7
2022-09-03T14:05:40.674Z,36.6
2022-09-03T14:07:37.474Z,37.4
2022-09-03T14:09:34.319Z,37.4
2022-09-03T14:11:39.819Z,37.9
2022-09-03T14:13:36.623Z,38.7
2022-09-03T14:15:33.511Z,38.1
2022-09-03T14:16:35.984Z,37.5
2022-09-03T14:18:32.728Z,37.8
2022-09-03T14:20:29.539Z,37.8
2022-09-03T14:24:31.257Z,38.6
2022-09-03T14:26:38.510Z,38.9
2022-09-03T14:28:24.818Z,38.9
2022-09-03T14:30:21.603Z,38.5
2022-09-03T14:34:15.152Z,38.6
2022-09-03T14:36:11.865Z,38.8
2022-09-03T14:38:16.817Z,37.3
2022-09-03T14:40:13.628Z,35.9
2022-09-03T14:42:10.340Z,37.1
2022-09-03T14:44:07.094Z,37.9
2022-09-03T14:46:06.188Z,39
2022-09-03T14:48:00.656Z,39.3
2022-09-03T14:49:57.407Z,38.6
2022-09-03T14:53:59.077Z,35.5
2022-09-03T14:55:55.856Z,36.1
2022-09-03T14:57:52.634Z,36.1
2022-09-03T14:59:49.504Z,34.2
2022-09-03T15:01:46.233Z,33.2
2022-09-03T15:03:43.043Z,31.9
2022-09-03T15:05:48.004Z,31.1
2022-09-03T15:07:44.890Z,31
2022-09-03T15:09:41.805Z,30.7
2022-09-03T15:10:44.323Z,30.5
2022-09-03T15:12:41.289Z,30.3
2022-09-03T15:14:38.289Z,30.4
2022-09-03T15:16:35.371Z,30.3
2022-09-03T15:18:40.414Z,30.2
2022-09-03T15:20:37.505Z,30.1
2022-09-03T15:22:34.589Z,30.1
2022-09-03T15:24:31.712Z,30.2
2022-09-03T15:26:28.857Z,29.9
2022-09-03T15:28:26.020Z,29.9
2022-09-03T15:30:23.205Z,29.6
2022-09-03T15:32:28.464Z,29.3
2022-09-03T15:34:25.658Z,29.2
2022-09-03T15:36:22.891Z,29.5
2022-09-03T15:40:17.379Z,29.7
2022-09-03T15:44:14.572Z,29.9
2022-09-03T15:50:11.754Z,29.6
2022-09-03T15:52:09.103Z,29.6
2022-09-03T15:54:06.395Z,29.7
2022-09-03T15:56:03.693Z,29.7
2022-09-03T15:58:00.991Z,29.5
2022-09-03T16:00:06.393Z,29.2
2022-09-03T16:02:03.658Z,29.4
2022-09-03T16:04:01.040Z,29.4
2022-09-03T16:05:03.641Z,29.2
2022-09-03T16:07:00.962Z,28.9
2022-09-03T16:13:01.002Z,28.9
2022-09-03T16:16:55.658Z,29
2022-09-03T16:18:53.026Z,29
2022-09-03T16:20:50.388Z,29
2022-09-03T16:22:47.724Z,28.8
2022-09-03T16:24:45.115Z,28.5
2022-09-03T16:26:50.463Z,28.6
2022-09-03T16:28:47.848Z,28.5
2022-09-03T16:30:45.210Z,28.3
2022-09-03T16:32:42.589Z,28.2
2022-09-03T16:34:39.973Z,28.1
2022-09-03T16:36:37.365Z,28
2022-09-03T16:38:34.749Z,27.8
2022-09-03T16:44:34.944Z,27.9
2022-09-03T16:46:32.337Z,28.1
2022-09-03T16:48:29.739Z,28.1
2022-09-03T16:50:27.166Z,28.1
2022-09-03T16:52:37.779Z,28.1
2022-09-03T16:54:31.502Z,28.1
2022-09-03T16:56:28.917Z,27.9
2022-09-03T16:58:26.331Z,27.7
2022-09-03T17:02:46.789Z,27.7
2022-09-03T17:04:44.154Z,27.8
2022-09-03T17:06:49.568Z,27.8
2022-09-03T17:08:46.978Z,27.8
2022-09-03T17:10:44.413Z,27.7
2022-09-03T17:12:41.840Z,27.7
2022-09-03T17:14:39.281Z,27.7
2022-09-03T17:16:36.777Z,27.5
2022-09-03T17:18:34.101Z,27.4
2022-09-03T17:22:36.979Z,27.3
2022-09-03T17:24:34.414Z,27.2
2022-09-03T17:26:31.915Z,27.2
2022-09-03T17:32:24.212Z,27.1
2022-09-03T17:36:27.141Z,26.9
2022-09-03T17:40:22.060Z,26.9
2022-09-03T17:42:20.429Z,27
2022-09-03T17:44:16.978Z,26.9
2022-09-03T17:46:14.560Z,26.9
2022-09-03T17:48:19.897Z,26.6
2022-09-03T17:50:17.367Z,26.8
2022-09-03T17:52:14.837Z,26.7
2022-09-03T17:53:17.561Z,26.6
2022-09-03T17:55:15.016Z,26.7
2022-09-03T17:57:12.485Z,26.7
2022-09-03T17:59:09.955Z,26.6
2022-09-03T18:01:15.451Z,26.3
2022-09-03T18:03:12.906Z,26.4
2022-09-03T18:05:10.362Z,26.3
2022-09-03T18:07:07.965Z,26.3
2022-09-03T18:09:05.304Z,26.3
2022-09-03T18:11:02.772Z,26.2
2022-09-03T18:13:04.121Z,26.1
2022-09-03T18:19:00.644Z,25.8
2022-09-03T18:21:20.789Z,25.8
2022-09-03T18:26:50.599Z,25.6
2022-09-03T18:28:56.098Z,25.5
2022-09-03T18:30:53.888Z,25.7
2022-09-03T18:34:48.880Z,25.5
2022-09-03T18:36:46.364Z,25.4
2022-09-03T18:38:43.890Z,25.4
2022-09-03T18:40:41.692Z,25.4
2022-09-03T18:44:44.351Z,25.2
2022-09-03T18:48:04.696Z,25.1
2022-09-03T18:49:42.168Z,25.3
2022-09-03T18:51:39.677Z,25.2
2022-09-03T18:53:37.166Z,25
2022-09-03T18:55:42.684Z,24.8
2022-09-03T18:57:40.166Z,24.9
2022-09-03T18:59:37.690Z,24.8
2022-09-03T19:01:35.347Z,24.7
2022-09-03T19:03:32.752Z,24.7
2022-09-03T19:05:30.265Z,24.5
2022-09-03T19:07:27.774Z,24.4
2022-09-03T19:09:33.257Z,24.6
2022-09-03T19:11:30.756Z,24.6
2022-09-03T19:13:28.515Z,24.4
2022-09-03T19:21:18.395Z,24.3
2022-09-03T19:23:24.101Z,24.2
2022-09-03T19:27:50.562Z,24.1
2022-09-03T19:29:16.499Z,24.2
2022-09-03T19:31:14.106Z,24.1
2022-09-03T19:33:11.817Z,24.1
2022-09-03T19:35:09.112Z,24
2022-09-03T19:37:14.585Z,23.9
2022-09-03T19:39:12.147Z,24.1
2022-09-03T19:42:12.416Z,23.9
2022-09-03T19:46:07.540Z,23.9
2022-09-03T19:48:05.036Z,23.9
2022-09-03T19:52:08.115Z,23.6
2022-09-03T19:54:05.663Z,23.6
2022-09-03T19:56:07.401Z,23.6
2022-09-03T19:58:00.759Z,23.5
2022-09-03T19:59:58.288Z,23.6
2022-09-03T20:04:01.368Z,23.4
2022-09-03T20:05:58.949Z,23.4
2022-09-03T20:09:54.092Z,23.3
2022-09-03T20:11:51.640Z,23.3
2022-09-03T20:13:49.199Z,23.2
2022-09-03T20:15:46.817Z,23.2
2022-09-03T20:17:52.270Z,23
2022-09-03T20:19:49.843Z,23
2022-09-03T20:21:47.500Z,22.9
2022-09-03T20:23:44.991Z,22.9
2022-09-03T20:27:40.164Z,22.7
2022-09-03T20:29:37.727Z,22.6
2022-09-03T20:31:43.261Z,22.7
2022-09-03T20:33:42.162Z,22.6
2022-09-03T20:35:38.380Z,22.5
2022-09-03T20:40:03.098Z,22.4
2022-09-03T20:42:00.409Z,22.4
2022-09-03T20:44:05.992Z,22.2
2022-09-03T20:46:03.565Z,22.2
2022-09-03T20:48:01.135Z,22.2
2022-09-03T20:49:58.676Z,22.1
2022-09-03T20:51:56.253Z,21.9
2022-09-03T20:53:53.824Z,21.9
2022-09-03T20:55:51.418Z,21.9
2022-09-03T20:57:56.960Z,21.6
2022-09-03T21:01:52.185Z,21.7
2022-09-03T21:03:49.715Z,21.6
2022-09-03T21:05:47.305Z,21.7
2022-09-03T21:07:44.884Z,21.6
2022-09-03T21:09:42.493Z,21.5
2022-09-03T21:11:48.042Z,21.5
2022-09-03T21:13:45.597Z,21.5
2022-09-03T21:15:43.229Z,21.5
2022-09-03T21:17:40.780Z,21.5
2022-09-03T21:19:38.398Z,21.4
2022-09-03T21:21:36.426Z,21.4
2022-09-03T21:23:33.553Z,21.5
2022-09-03T21:25:39.113Z,21.5
2022-09-03T21:27:36.708Z,21.5
2022-09-03T21:29:34.283Z,21.4
2022-09-03T21:30:37.141Z,21.5
2022-09-03T21:32:34.676Z,21.4
2022-09-03T21:34:32.299Z,21.5
2022-09-03T21:36:29.884Z,21.5
2022-09-03T21:38:35.412Z,21.6
2022-09-03T21:40:33.025Z,21.8
2022-09-03T21:42:30.630Z,21.7
2022-09-03T21:44:28.214Z,21.6
2022-09-03T21:46:25.878Z,21.8
2022-09-03T21:48:23.548Z,21.8
2022-09-03T21:50:21.007Z,21.7
2022-09-03T21:56:21.802Z,21.7
2022-09-03T21:58:19.338Z,21.7
2022-09-03T22:02:14.567Z,21.7
2022-09-03T22:06:17.719Z,21.6
2022-09-03T22:08:15.306Z,21.8
2022-09-03T22:10:12.906Z,21.8
2022-09-03T22:12:10.482Z,21.6
2022-09-03T22:14:08.076Z,21.7
2022-09-03T22:16:05.718Z,21.7
2022-09-03T22:18:03.290Z,21.6
2022-09-03T22:20:08.878Z,21.5
2022-09-03T22:22:06.440Z,21.4
2022-09-03T22:24:04.028Z,21.4
2022-09-03T22:27:04.390Z,21.4
2022-09-03T22:29:02.006Z,21.3
2022-09-03T22:30:59.654Z,21.3
2022-09-03T22:37:01.870Z,21.4
2022-09-03T22:38:59.503Z,21.2
2022-09-03T22:40:57.087Z,21.3
2022-09-03T22:42:54.694Z,21.1
2022-09-03T22:44:52.311Z,21.1
2022-09-03T22:46:57.852Z,21.1
2022-09-03T22:48:55.449Z,21.1
2022-09-03T22:50:53.093Z,21.1
2022-09-03T22:52:50.683Z,21
2022-09-03T22:54:48.259Z,20.9
2022-09-03T22:56:45.879Z,21
2022-09-03T22:58:43.492Z,20.8
2022-09-03T23:00:49.102Z,20.7
2022-09-03T23:04:44.264Z,20.9
2022-09-03T23:06:41.882Z,20.8
2022-09-03T23:08:39.468Z,20.8
2022-09-03T23:10:37.060Z,20.7
2022-09-03T23:14:40.214Z,20.6
2022-09-03T23:16:37.927Z,20.7
2022-09-03T23:18:35.456Z,20.8
2022-09-03T23:19:38.243Z,20.8
2022-09-03T23:21:35.887Z,20.6
2022-09-03T23:23:33.486Z,20.6
2022-09-03T23:25:31.098Z,20.5
2022-09-03T23:27:36.676Z,20.5
2022-09-03T23:29:35.188Z,20.5
2022-09-03T23:31:32.819Z,20.5
2022-09-03T23:33:30.408Z,20.4
2022-09-03T23:35:28.009Z,20.5
2022-09-03T23:39:23.305Z,20.5
2022-09-03T23:41:28.833Z,20.2
2022-09-03T23:43:26.449Z,20.2
2022-09-03T23:47:21.674Z,20.1
2022-09-03T23:49:19.300Z,20.1
2022-09-03T23:51:16.942Z,20.2
2022-09-03T23:57:17.733Z,20.1
2022-09-03T23:59:15.377Z,20
